Time;durP1;ratioP1;P1;durP2;ratioP2;P2;SDS_P1;SDS_P2;PMS_P1;PMS_P2;Temp;Humidity;BMP_temperature;BMP_pressure;BME280_temperature;BME280_humidity;BME280_pressure;Samples;Min_cycle;Max_cycle;Signal;HPM_P1;HPM_P2
2021/07/14 00:00:10;;;;;;;2.60;2.40;;;19.10;97.20;;;;;;5052307;28;20649;-53
2021/07/14 00:02:37;;;;;;;3.47;3.17;;;19.10;97.20;;;;;;5032362;28;20662;-53
2021/07/14 00:05:06;;;;;;;2.53;2.27;;;19.10;97.10;;;;;;5032072;28;21203;-54
2021/07/14 00:07:34;;;;;;;6.30;2.27;;;19.10;97.20;;;;;;5042030;28;21279;-53
2021/07/14 00:10:01;;;;;;;2.87;2.50;;;19.00;97.20;;;;;;5035232;28;20614;-53
2021/07/14 00:12:31;;;;;;;4.20;2.70;;;19.00;97.20;;;;;;5051556;28;21102;-53
2021/07/14 00:22:05;;;;;;;3.40;2.20;;;19.00;97.50;;;;;;5050936;28;20707;-54
2021/07/14 00:23:24;;;;;;;2.73;2.53;;;19.00;97.40;;;;;;5052162;28;20689;-53
2021/07/14 00:25:51;;;;;;;3.40;2.50;;;19.00;97.20;;;;;;5052502;28;20652;-53
2021/07/14 00:28:20;;;;;;;2.37;2.17;;;19.00;97.20;;;;;;5052178;28;20677;-53
2021/07/14 00:30:51;;;;;;;3.93;2.93;;;19.00;97.20;;;;;;5050936;28;20650;-53
2021/07/14 00:33:19;;;;;;;2.40;2.20;;;19.00;97.20;;;;;;5051300;28;20714;-53
2021/07/14 00:35:46;;;;;;;3.20;2.63;;;19.00;97.20;;;;;;5051289;28;20665;-54
2021/07/14 00:38:13;;;;;;;3.83;2.53;;;19.00;97.20;;;;;;5051366;28;21143;-54
2021/07/14 00:40:40;;;;;;;2.23;2.03;;;19.00;97.20;;;;;;5049842;28;20673;-53
2021/07/14 00:43:08;;;;;;;6.33;2.33;;;19.00;97.70;;;;;;5047798;28;20672;-52
2021/07/14 00:45:36;;;;;;;3.70;2.50;;;18.90;97.40;;;;;;5051154;28;20650;-51
2021/07/14 00:48:04;;;;;;;3.13;2.60;;;18.90;97.50;;;;;;5050699;28;20649;-51
2021/07/14 00:50:31;;;;;;;5.43;4.00;;;19.00;97.50;;;;;;5050716;28;20626;-51
2021/07/14 00:52:58;;;;;;;4.30;3.10;;;19.00;97.60;;;;;;5032510;28;20650;-53
2021/07/14 00:55:26;;;;;;;3.07;2.80;;;19.00;97.60;;;;;;5050402;28;20656;-52
2021/07/14 00:57:53;;;;;;;2.60;2.40;;;19.00;97.50;;;;;;5050663;28;21223;-52
2021/07/14 01:00:20;;;;;;;2.97;2.60;;;18.90;97.30;;;;;;5050226;28;20711;-53
2021/07/14 01:02:48;;;;;;;2.97;2.50;;;19.00;97.40;;;;;;5050908;28;20706;-52
2021/07/14 01:05:19;;;;;;;3.50;3.10;;;19.00;97.40;;;;;;5050412;28;21132;-53
2021/07/14 01:07:50;;;;;;;2.80;2.60;;;19.00;97.40;;;;;;5050326;28;21272;-53
2021/07/14 01:10:21;;;;;;;3.70;2.90;;;18.90;97.40;;;;;;5049681;28;20666;-52
2021/07/14 01:12:54;;;;;;;2.83;2.50;;;18.90;97.30;;;;;;5050330;28;20650;-53
2021/07/14 01:15:22;;;;;;;3.30;2.70;;;18.90;97.40;;;;;;5050528;28;20681;-52
2021/07/14 01:17:52;;;;;;;4.00;3.17;;;18.90;97.40;;;;;;5050033;28;20686;-52
2021/07/14 01:20:28;;;;;;;3.00;2.80;;;18.90;97.30;;;;;;5049907;28;20686;-51
2021/07/14 01:23:05;;;;;;;4.27;2.50;;;18.90;97.30;;;;;;5049854;28;20626;-52
2021/07/14 01:25:47;;;;;;;3.60;2.30;;;18.90;97.30;;;;;;5050187;28;20673;-53
2021/07/14 01:28:15;;;;;;;4.20;3.00;;;18.90;97.40;;;;;;5049880;28;21307;-52
2021/07/14 01:30:45;;;;;;;5.80;3.17;;;18.80;97.40;;;;;;5049429;28;21143;-53
2021/07/14 01:33:14;;;;;;;4.17;3.37;;;18.80;97.50;;;;;;5050081;28;20745;-52
2021/07/14 01:35:43;;;;;;;3.10;2.83;;;18.90;97.50;;;;;;5050146;28;20664;-53
2021/07/14 01:38:10;;;;;;;3.83;2.90;;;18.90;97.40;;;;;;5049739;28;20714;-54
2021/07/14 01:40:38;;;;;;;5.10;2.50;;;18.90;97.60;;;;;;5049705;28;20669;-54
2021/07/14 01:43:05;;;;;;;3.20;2.90;;;18.80;97.30;;;;;;5049822;28;20662;-54
2021/07/14 01:45:36;;;;;;;2.73;2.53;;;18.90;97.40;;;;;;5049812;28;20666;-53
2021/07/14 01:48:04;;;;;;;4.70;3.73;;;18.90;97.20;;;;;;5049785;28;20689;-54
2021/07/14 01:50:32;;;;;;;5.23;3.27;;;18.90;97.20;;;;;;5049019;28;20684;-53
2021/07/14 01:53:00;;;;;;;5.00;3.63;;;18.90;97.20;;;;;;5067866;28;21196;-54
2021/07/14 01:55:27;;;;;;;3.53;3.23;;;18.90;97.30;;;;;;5052397;28;20630;-51
2021/07/14 01:57:55;;;;;;;5.00;2.90;;;18.90;97.40;;;;;;5049331;28;20700;-50
2021/07/14 02:00:22;;;;;;;4.17;3.30;;;18.90;97.30;;;;;;5049322;28;20657;-51
2021/07/14 02:02:54;;;;;;;5.13;3.83;;;18.90;97.40;;;;;;5049054;28;20634;-50
2021/07/14 02:05:21;;;;;;;6.17;3.57;;;18.80;97.30;;;;;;5048943;28;20634;-53
2021/07/14 02:07:49;;;;;;;3.63;2.80;;;18.80;97.30;;;;;;5049285;28;20761;-53
2021/07/14 02:10:16;;;;;;;4.53;4.07;;;18.80;97.30;;;;;;5049221;28;20634;-51
2021/07/14 02:12:45;;;;;;;3.47;3.17;;;18.80;97.30;;;;;;5048972;28;20634;-52
2021/07/14 02:15:13;;;;;;;3.73;3.27;;;18.80;97.40;;;;;;5029682;28;21301;-54
2021/07/14 02:17:48;;;;;;;8.60;3.83;;;18.80;97.50;;;;;;5029833;28;20698;-53
2021/07/14 02:20:18;;;;;;;3.70;3.40;;;18.80;97.50;;;;;;5048946;28;20659;-52
2021/07/14 02:22:45;;;;;;;3.10;2.83;;;18.80;97.50;;;;;;5040003;28;20657;-54
2021/07/14 02:25:13;;;;;;;4.70;3.93;;;18.80;97.70;;;;;;5049468;28;20688;-53
2021/07/14 02:27:40;;;;;;;2.90;2.70;;;18.80;97.70;;;;;;5048660;28;20701;-53
2021/07/14 02:30:15;;;;;;;3.83;3.43;;;18.70;97.90;;;;;;5049122;28;20650;-52
2021/07/14 02:32:43;;;;;;;3.53;3.20;;;18.70;97.70;;;;;;5049220;28;21118;-54
2021/07/14 02:35:10;;;;;;;3.97;3.50;;;18.80;97.60;;;;;;5048975;28;20670;-51
2021/07/14 02:37:42;;;;;;;3.97;3.57;;;18.80;97.70;;;;;;5048300;28;20690;-52
2021/07/14 02:40:10;;;;;;;3.60;3.13;;;18.80;97.70;;;;;;5049328;28;20653;-52
2021/07/14 02:42:37;;;;;;;3.50;2.90;;;18.70;97.60;;;;;;5048907;28;20741;-52
2021/07/14 02:45:06;;;;;;;7.00;4.20;;;18.80;97.60;;;;;;5053507;28;21066;-52
2021/07/14 02:47:36;;;;;;;5.50;3.50;;;18.80;97.60;;;;;;5053199;28;20748;-51
2021/07/14 02:50:08;;;;;;;6.73;3.87;;;18.70;98.00;;;;;;5053250;28;20776;-52
2021/07/14 02:52:35;;;;;;;3.53;3.20;;;18.60;97.70;;;;;;5052730;28;20649;-51
2021/07/14 02:55:06;;;;;;;3.60;3.03;;;18.60;97.90;;;;;;5053056;28;20733;-51
2021/07/14 02:57:35;;;;;;;4.03;3.70;;;18.50;98.00;;;;;;5052903;28;21255;-50
2021/07/14 03:00:03;;;;;;;4.67;4.27;;;18.50;98.20;;;;;;5052878;28;20618;-50
2021/07/14 03:02:31;;;;;;;3.87;3.47;;;18.50;98.30;;;;;;5032863;28;20682;-51
2021/07/14 03:04:58;;;;;;;4.30;3.90;;;18.50;98.20;;;;;;5052770;28;20642;-51
2021/07/14 03:07:26;;;;;;;4.30;4.00;;;18.50;98.10;;;;;;5052265;28;20685;-50
2021/07/14 03:09:53;;;;;;;4.87;3.47;;;18.60;98.10;;;;;;5052526;28;21047;-52
2021/07/14 03:12:22;;;;;;;4.00;3.70;;;18.60;98.10;;;;;;5052251;28;20665;-52
2021/07/14 03:14:52;;;;;;;3.83;3.53;;;18.60;98.00;;;;;;5052748;28;20622;-53
2021/07/14 03:17:19;;;;;;;5.30;3.70;;;18.60;98.00;;;;;;5052590;28;20689;-53
2021/07/14 03:19:46;;;;;;;3.70;3.40;;;18.70;98.00;;;;;;5052412;28;20650;-53
2021/07/14 03:22:13;;;;;;;4.90;4.10;;;18.60;98.00;;;;;;5052633;28;20660;-54
2021/07/14 03:24:41;;;;;;;3.53;3.23;;;18.60;98.00;;;;;;5053193;28;20617;-53
2021/07/14 03:27:09;;;;;;;3.23;3.03;;;18.70;98.40;;;;;;5052095;28;20694;-52
2021/07/14 03:29:38;;;;;;;4.10;3.70;;;18.70;98.10;;;;;;5052555;28;20625;-54
2021/07/14 03:32:06;;;;;;;3.97;3.63;;;18.70;98.10;;;;;;5051993;28;21113;-51
2021/07/14 03:34:33;;;;;;;3.73;3.27;;;18.60;98.00;;;;;;5052484;28;20657;-52
2021/07/14 03:37:04;;;;;;;3.57;3.10;;;18.60;98.00;;;;;;5052723;28;21086;-53
2021/07/14 03:39:31;;;;;;;4.37;3.90;;;18.70;98.10;;;;;;5052154;28;20682;-52
2021/07/14 03:41:59;;;;;;;4.40;4.00;;;18.60;98.00;;;;;;5051853;28;20725;-54
2021/07/14 03:44:26;;;;;;;5.00;2.90;;;18.60;98.10;;;;;;5051902;28;20657;-54
2021/07/14 03:46:55;;;;;;;3.30;3.00;;;18.60;98.10;;;;;;5050847;28;20704;-52
2021/07/14 03:49:22;;;;;;;3.07;2.87;;;18.50;98.10;;;;;;5051730;28;20718;-53
2021/07/14 03:51:49;;;;;;;6.43;3.20;;;18.50;98.20;;;;;;5051821;28;20622;-53
2021/07/14 03:54:16;;;;;;;4.20;3.90;;;18.50;98.30;;;;;;5051492;28;20657;-52
2021/07/14 03:56:43;;;;;;;6.03;4.07;;;18.50;98.40;;;;;;5051692;28;20657;-53
2021/07/14 03:59:11;;;;;;;3.93;3.63;;;18.50;98.40;;;;;;5051774;28;21015;-52
2021/07/14 04:01:38;;;;;;;5.30;4.20;;;18.50;98.30;;;;;;5051272;28;20677;-52
2021/07/14 04:04:07;;;;;;;4.20;3.80;;;18.50;98.40;;;;;;5052096;28;21170;-53
2021/07/14 04:06:35;;;;;;;3.80;3.50;;;18.50;98.40;;;;;;5050885;28;20657;-52
2021/07/14 04:09:29;;;;;;;4.60;4.20;;;18.40;98.40;;;;;;5051548;28;20621;-52
2021/07/14 04:11:57;;;;;;;4.40;4.00;;;18.50;98.60;;;;;;5004379;28;21163;-52
2021/07/14 04:14:25;;;;;;;4.23;3.83;;;18.40;98.50;;;;;;5051634;28;20645;-51
2021/07/14 04:16:52;;;;;;;7.23;5.03;;;18.50;98.70;;;;;;5050901;28;20682;-52
2021/07/14 04:19:21;;;;;;;6.30;3.77;;;18.40;98.70;;;;;;5050855;28;20743;-53
2021/07/14 04:21:48;;;;;;;4.33;3.93;;;18.40;98.70;;;;;;5051554;28;21158;-52
2021/07/14 04:24:15;;;;;;;5.63;4.10;;;18.40;98.70;;;;;;5050624;28;20634;-53
2021/07/14 04:26:43;;;;;;;5.20;4.60;;;18.50;98.80;;;;;;5051116;28;20689;-52
2021/07/14 04:29:10;;;;;;;4.30;3.90;;;18.50;98.80;;;;;;5051503;28;20637;-53
2021/07/14 04:31:37;;;;;;;6.33;4.87;;;18.50;98.80;;;;;;5051121;28;20665;-53
2021/07/14 04:34:04;;;;;;;4.90;4.40;;;18.50;98.70;;;;;;5050951;28;20665;-53
2021/07/14 04:36:33;;;;;;;4.20;3.90;;;18.50;98.70;;;;;;5051331;28;21296;-52
2021/07/14 04:39:00;;;;;;;4.73;4.40;;;18.50;98.60;;;;;;5051143;28;20968;-53
2021/07/14 04:41:28;;;;;;;4.50;4.20;;;18.50;98.50;;;;;;5051176;28;20634;-53
2021/07/14 04:43:58;;;;;;;4.67;4.37;;;18.50;98.50;;;;;;5050702;28;20654;-53
2021/07/14 04:46:25;;;;;;;3.73;3.40;;;18.50;98.60;;;;;;5050779;28;20696;-54
2021/07/14 04:48:52;;;;;;;5.80;3.57;;;18.50;98.50;;;;;;5050705;28;20649;-53
2021/07/14 04:51:20;;;;;;;5.17;4.67;;;18.50;98.60;;;;;;5050661;28;20658;-52
2021/07/14 04:53:48;;;;;;;4.50;4.07;;;18.50;98.60;;;;;;5050399;28;21210;-52
2021/07/14 04:56:16;;;;;;;4.10;3.70;;;18.50;98.60;;;;;;5050708;28;20744;-54
2021/07/14 04:58:44;;;;;;;7.13;4.43;;;18.60;98.60;;;;;;5050312;28;20630;-53
2021/07/14 05:01:13;;;;;;;4.63;4.30;;;18.60;98.50;;;;;;5050573;28;20812;-53
2021/07/14 05:03:40;;;;;;;4.60;4.20;;;18.60;98.60;;;;;;5050380;28;20732;-53
2021/07/14 05:06:07;;;;;;;6.10;5.60;;;18.60;98.50;;;;;;5048903;28;20664;-53
2021/07/14 05:08:34;;;;;;;5.33;4.67;;;18.50;98.50;;;;;;5050020;28;20654;-54
2021/07/14 05:11:03;;;;;;;5.27;4.67;;;18.50;98.50;;;;;;5050820;28;20668;-51
2021/07/14 05:13:31;;;;;;;6.00;5.50;;;18.60;98.50;;;;;;5049748;28;20957;-53
2021/07/14 05:15:58;;;;;;;4.80;4.17;;;18.60;98.40;;;;;;5050292;28;20654;-52
2021/07/14 05:18:25;;;;;;;5.23;4.73;;;18.60;98.30;;;;;;5050061;28;20661;-54
2021/07/14 05:20:52;;;;;;;8.73;5.00;;;18.60;98.20;;;;;;5049782;28;20690;-53
2021/07/14 05:23:20;;;;;;;6.73;4.67;;;18.60;98.20;;;;;;5050018;28;20678;-53
2021/07/14 05:25:47;;;;;;;5.00;4.50;;;18.60;98.20;;;;;;5033219;28;20611;-52
2021/07/14 05:28:16;;;;;;;5.77;4.90;;;18.60;98.20;;;;;;5049613;28;20697;-52
2021/07/14 05:30:43;;;;;;;4.13;3.73;;;18.60;98.20;;;;;;5049611;28;20622;-54
2021/07/14 05:33:10;;;;;;;7.63;4.03;;;18.70;98.20;;;;;;5049147;28;20665;-52
2021/07/14 05:35:38;;;;;;;5.33;4.57;;;18.70;98.10;;;;;;5050263;28;20997;-56
2021/07/14 05:38:05;;;;;;;4.53;4.13;;;18.70;98.00;;;;;;5048998;28;20769;-51
2021/07/14 05:40:32;;;;;;;10.50;4.60;;;18.60;98.00;;;;;;5048473;28;20676;-51
2021/07/14 05:42:59;;;;;;;5.13;4.73;;;18.70;98.00;;;;;;5049482;28;20680;-51
2021/07/14 05:45:28;;;;;;;5.00;4.00;;;18.60;98.30;;;;;;5049973;28;20645;-52
2021/07/14 05:47:55;;;;;;;19.93;4.23;;;18.60;98.20;;;;;;5049614;28;21232;-52
2021/07/14 05:50:22;;;;;;;4.03;3.60;;;18.60;98.30;;;;;;5049397;28;20622;-52
2021/07/14 05:52:50;;;;;;;4.87;3.97;;;18.60;98.40;;;;;;5048968;28;20661;-53
2021/07/14 05:55:17;;;;;;;5.60;5.10;;;18.60;98.40;;;;;;5049133;28;20626;-53
2021/07/14 05:57:44;;;;;;;5.80;5.00;;;18.70;98.40;;;;;;5049713;28;20697;-53
2021/07/14 06:00:12;;;;;;;6.37;4.07;;;18.70;98.30;;;;;;5049257;28;21033;-52
2021/07/14 06:02:41;;;;;;;5.67;5.17;;;18.70;98.30;;;;;;5049823;28;20665;-52
2021/07/14 06:05:09;;;;;;;5.70;5.20;;;18.60;98.20;;;;;;5049685;28;21050;-53
2021/07/14 06:07:37;;;;;;;4.90;4.47;;;18.60;98.30;;;;;;5049583;28;20729;-52
2021/07/14 06:10:05;;;;;;;6.10;5.03;;;18.60;98.30;;;;;;5049505;28;20646;-52
2021/07/14 06:12:32;;;;;;;5.63;5.23;;;18.60;98.40;;;;;;5049330;28;20630;-52
2021/07/14 06:14:59;;;;;;;7.00;5.43;;;18.60;98.30;;;;;;5049064;28;20987;-52
2021/07/14 06:17:27;;;;;;;5.33;4.93;;;18.50;98.20;;;;;;5049142;28;20686;-51
2021/07/14 06:19:56;;;;;;;8.90;5.50;;;18.60;98.20;;;;;;5049362;28;20678;-51
2021/07/14 06:22:23;;;;;;;10.33;4.53;;;18.70;98.20;;;;;;5049276;28;20630;-52
2021/07/14 06:24:50;;;;;;;5.43;4.83;;;18.70;98.20;;;;;;5049651;28;20657;-49
2021/07/14 06:27:17;;;;;;;8.07;4.60;;;18.70;98.10;;;;;;5049564;28;21169;-47
2021/07/14 06:29:45;;;;;;;4.17;3.87;;;18.80;98.10;;;;;;5049360;28;20630;-49
2021/07/14 06:32:12;;;;;;;4.47;4.17;;;18.90;98.10;;;;;;5049228;28;20637;-50
2021/07/14 06:34:39;;;;;;;4.13;3.83;;;19.00;97.60;;;;;;5050185;28;20661;-48
2021/07/14 06:37:08;;;;;;;4.60;4.17;;;19.00;97.60;;;;;;5049223;28;20694;-50
2021/07/14 06:39:35;;;;;;;4.73;4.00;;;19.10;97.10;;;;;;5049925;28;20728;-48
2021/07/14 06:42:03;;;;;;;3.33;3.00;;;19.10;98.00;;;;;;5049272;28;20646;-50
2021/07/14 06:44:31;;;;;;;7.30;4.33;;;19.20;97.40;;;;;;5049433;28;20617;-49
2021/07/14 06:46:59;;;;;;;4.83;4.20;;;19.20;97.20;;;;;;5049158;28;20656;-49
2021/07/14 06:49:26;;;;;;;4.80;4.10;;;19.20;97.30;;;;;;5050242;28;20654;-52
2021/07/14 06:51:53;;;;;;;5.50;5.00;;;19.20;97.40;;;;;;5041916;28;21188;-53
2021/07/14 06:54:22;;;;;;;5.03;4.63;;;19.10;97.40;;;;;;5049282;28;20645;-54
2021/07/14 06:56:49;;;;;;;4.90;4.40;;;19.10;97.30;;;;;;5050126;28;21187;-55
2021/07/14 06:59:16;;;;;;;4.60;4.17;;;19.10;97.20;;;;;;5049449;28;20634;-54
2021/07/14 07:01:43;;;;;;;5.17;4.67;;;19.00;97.40;;;;;;5049527;28;20698;-54
2021/07/14 07:04:10;;;;;;;6.87;6.07;;;19.00;97.60;;;;;;5049818;28;20657;-53
2021/07/14 07:06:38;;;;;;;5.97;5.13;;;18.90;97.60;;;;;;5049732;28;20701;-53
2021/07/14 07:09:05;;;;;;;7.23;5.60;;;18.90;97.60;;;;;;5049867;28;20678;-51
2021/07/14 07:11:35;;;;;;;5.67;5.10;;;18.90;97.70;;;;;;5049581;28;20645;-53
2021/07/14 07:14:02;;;;;;;5.60;5.10;;;18.80;97.90;;;;;;5050068;28;20718;-51
2021/07/14 07:16:29;;;;;;;5.93;4.43;;;18.80;98.10;;;;;;5049492;28;20765;-51
2021/07/14 07:18:56;;;;;;;7.93;4.90;;;18.80;98.10;;;;;;5049584;28;20738;-52
2021/07/14 07:21:25;;;;;;;7.40;5.90;;;18.70;98.10;;;;;;5049358;28;20686;-51
2021/07/14 07:23:53;;;;;;;6.30;5.77;;;18.70;98.10;;;;;;5049929;28;20657;-52
2021/07/14 07:26:20;;;;;;;6.50;5.90;;;18.70;98.10;;;;;;5049287;28;20690;-52
2021/07/14 07:28:51;;;;;;;6.67;5.80;;;18.70;98.10;;;;;;5049988;28;21210;-52
2021/07/14 07:31:18;;;;;;;5.37;4.97;;;18.80;98.10;;;;;;5053125;28;20653;-52
2021/07/14 07:33:45;;;;;;;5.90;5.30;;;18.80;98.10;;;;;;5053928;28;20777;-52
2021/07/14 07:36:12;;;;;;;6.67;6.10;;;18.80;97.90;;;;;;5053281;28;20669;-52
2021/07/14 07:38:40;;;;;;;6.37;5.83;;;18.80;98.00;;;;;;5053228;28;20665;-52
2021/07/14 07:41:07;;;;;;;5.70;5.20;;;18.80;98.00;;;;;;5053375;28;20693;-52
2021/07/14 07:43:35;;;;;;;6.77;5.87;;;18.80;98.10;;;;;;5053357;28;20669;-52
2021/07/14 07:46:03;;;;;;;7.13;6.43;;;18.90;98.10;;;;;;5051640;28;20795;-52
2021/07/14 07:48:31;;;;;;;6.93;6.23;;;18.90;98.00;;;;;;5052443;28;20630;-52
2021/07/14 07:50:58;;;;;;;5.90;5.30;;;18.90;98.00;;;;;;5053105;28;20661;-52
2021/07/14 07:53:25;;;;;;;6.30;5.37;;;18.90;98.00;;;;;;5052067;28;20662;-52
2021/07/14 07:55:52;;;;;;;8.17;5.40;;;18.90;98.10;;;;;;5053288;28;20654;-52
2021/07/14 07:58:20;;;;;;;5.40;5.00;;;18.90;97.90;;;;;;5050128;28;20685;-51
2021/07/14 08:00:47;;;;;;;5.50;5.10;;;19.00;98.00;;;;;;5050272;28;20686;-52
2021/07/14 08:03:16;;;;;;;8.70;7.80;;;19.00;97.80;;;;;;5052144;28;20748;-51
2021/07/14 08:05:43;;;;;;;5.20;4.37;;;19.00;97.90;;;;;;5047710;28;20711;-52
2021/07/14 08:08:10;;;;;;;5.90;5.03;;;19.00;97.90;;;;;;5052252;28;20682;-54
2021/07/14 08:10:38;;;;;;;5.13;4.63;;;19.00;97.80;;;;;;5050625;28;20661;-62
2021/07/14 08:13:05;;;;;;;4.63;3.80;;;19.10;97.70;;;;;;5052349;28;20668;-55
2021/07/14 08:15:32;;;;;;;8.43;4.47;;;19.10;97.80;;;;;;5051358;28;20715;-55
2021/07/14 08:18:00;;;;;;;4.53;3.73;;;19.10;97.30;;;;;;5051702;28;20677;-54
2021/07/14 08:20:28;;;;;;;3.70;3.40;;;19.10;97.30;;;;;;5051389;28;20697;-54
2021/07/14 08:22:56;;;;;;;10.13;3.67;;;19.10;97.30;;;;;;5051032;28;20673;-54
2021/07/14 08:25:24;;;;;;;6.07;4.43;;;19.10;97.30;;;;;;5051493;28;20681;-52
2021/07/14 08:27:51;;;;;;;5.23;4.00;;;19.10;97.30;;;;;;5050839;28;20689;-53
2021/07/14 08:30:19;;;;;;;7.57;4.47;;;19.10;97.30;;;;;;5051605;28;20661;-56
2021/07/14 08:32:46;;;;;;;4.93;3.30;;;19.10;97.30;;;;;;5051979;28;21430;-54
2021/07/14 08:35:14;;;;;;;7.07;3.07;;;19.10;97.30;;;;;;5052494;28;20658;-53
2021/07/14 08:37:42;;;;;;;4.73;3.03;;;19.10;97.30;;;;;;5052035;28;20677;-54
2021/07/14 08:40:10;;;;;;;3.77;3.20;;;19.10;97.30;;;;;;5052255;28;20657;-53
2021/07/14 08:42:39;;;;;;;3.13;2.90;;;19.10;97.30;;;;;;5051626;28;20622;-52
2021/07/14 08:45:08;;;;;;;3.50;3.20;;;19.10;97.30;;;;;;5051798;28;20729;-54
2021/07/14 08:47:35;;;;;;;6.63;3.37;;;19.10;97.40;;;;;;5051607;28;20691;-57
2021/07/14 08:50:02;;;;;;;3.57;3.07;;;19.20;97.30;;;;;;5052039;28;21237;-55
2021/07/14 08:52:30;;;;;;;4.03;3.63;;;19.20;97.30;;;;;;5051298;28;20630;-54
2021/07/14 08:54:58;;;;;;;4.70;3.27;;;19.20;97.30;;;;;;5052336;28;20658;-55
2021/07/14 08:57:26;;;;;;;3.60;3.30;;;19.20;97.20;;;;;;5051754;28;20682;-56
2021/07/14 08:59:53;;;;;;;5.33;4.53;;;19.20;97.30;;;;;;5051737;28;20760;-54
2021/07/14 09:02:20;;;;;;;5.13;4.23;;;19.20;97.30;;;;;;5050876;28;20694;-55
2021/07/14 09:04:47;;;;;;;5.17;4.70;;;19.10;97.30;;;;;;5051538;28;20702;-55
2021/07/14 09:07:15;;;;;;;5.13;4.67;;;19.10;97.30;;;;;;5051551;28;21210;-56
2021/07/14 09:09:43;;;;;;;5.27;4.67;;;19.20;97.30;;;;;;5051764;28;20658;-55
2021/07/14 09:12:13;;;;;;;9.77;4.77;;;19.10;97.30;;;;;;5051585;28;20673;-56
2021/07/14 09:14:41;;;;;;;5.33;4.93;;;19.20;97.50;;;;;;5051582;28;20626;-57
2021/07/14 09:17:23;;;;;;;10.87;5.87;;;19.20;97.80;;;;;;5052210;28;20685;-52
2021/07/14 09:19:51;;;;;;;10.17;4.80;;;19.20;97.40;;;;;;5051977;28;20637;-51
2021/07/14 09:22:21;;;;;;;6.37;5.23;;;19.20;97.50;;;;;;5051718;28;20698;-52
2021/07/14 09:24:49;;;;;;;7.47;4.70;;;19.20;97.50;;;;;;5051296;28;20662;-51
2021/07/14 09:27:18;;;;;;;7.53;5.47;;;19.20;97.50;;;;;;5051257;28;21045;-52
2021/07/14 09:30:07;;;;;;;5.67;5.13;;;19.20;97.70;;;;;;5052135;28;20621;-53
2021/07/14 09:32:48;;;;;;;9.10;5.67;;;19.20;97.60;;;;;;5049066;28;20653;-55
2021/07/14 09:35:26;;;;;;;10.80;5.10;;;19.20;97.40;;;;;;5051252;28;20984;-55
2021/07/14 09:37:53;;;;;;;10.10;5.80;;;19.10;97.50;;;;;;5050387;28;20709;-53
2021/07/14 09:40:21;;;;;;;7.20;5.33;;;19.10;97.50;;;;;;5050828;28;20988;-55
2021/07/14 09:42:54;;;;;;;4.83;4.40;;;19.20;97.50;;;;;;5050585;28;20678;-56
2021/07/14 09:45:41;;;;;;;5.63;5.07;;;19.20;97.30;;;;;;5051091;28;20657;-56
2021/07/14 09:48:10;;;;;;;4.97;4.67;;;19.20;97.30;;;;;;5032987;28;20661;-55
2021/07/14 09:50:38;;;;;;;5.83;5.33;;;19.20;97.30;;;;;;5050697;28;20658;-54
2021/07/14 09:53:06;;;;;;;7.20;6.03;;;19.20;97.30;;;;;;5050428;28;20661;-57
2021/07/14 09:55:34;;;;;;;7.33;5.60;;;19.20;97.30;;;;;;5050236;28;20672;-58
2021/07/14 09:58:10;;;;;;;8.40;6.03;;;19.20;97.30;;;;;;5050931;28;20945;-58
2021/07/14 10:00:41;;;;;;;6.53;4.97;;;19.20;97.30;;;;;;5049924;28;20625;-57
2021/07/14 10:03:08;;;;;;;5.40;4.90;;;19.20;97.30;;;;;;5050666;28;20690;-57
2021/07/14 10:05:36;;;;;;;6.97;6.27;;;19.20;97.40;;;;;;5050779;28;20657;-55
2021/07/14 10:08:17;;;;;;;5.73;5.10;;;19.20;97.50;;;;;;5032148;28;20658;-57
2021/07/14 10:10:44;;;;;;;4.83;4.53;;;19.20;97.60;;;;;;5050812;28;21225;-56
2021/07/14 10:13:13;;;;;;;5.97;5.37;;;19.20;97.50;;;;;;5049799;28;20658;-55
2021/07/14 10:15:40;;;;;;;5.67;5.20;;;19.20;97.50;;;;;;5050328;28;21006;-56
2021/07/14 10:18:12;;;;;;;10.20;5.40;;;19.20;97.70;;;;;;5031818;28;20660;-55
2021/07/14 10:20:43;;;;;;;5.37;4.97;;;19.20;97.60;;;;;;5050161;28;20650;-58
2021/07/14 10:23:11;;;;;;;6.90;4.97;;;19.10;97.50;;;;;;5050543;28;20689;-56
2021/07/14 10:25:39;;;;;;;5.63;5.23;;;19.10;97.60;;;;;;5050566;28;20885;-56
2021/07/14 10:28:07;;;;;;;5.97;5.47;;;19.20;97.70;;;;;;5049807;28;20701;-56
2021/07/14 10:30:36;;;;;;;5.40;4.90;;;19.10;97.80;;;;;;5050154;28;20883;-55
2021/07/14 10:33:05;;;;;;;4.83;4.43;;;19.10;97.80;;;;;;5049961;28;21196;-54
2021/07/14 10:35:35;;;;;;;5.93;5.20;;;19.10;97.90;;;;;;5050313;28;20649;-56
2021/07/14 10:38:03;;;;;;;5.70;5.20;;;19.10;97.90;;;;;;5050074;28;20672;-54
2021/07/14 10:40:30;;;;;;;5.33;4.83;;;19.10;97.80;;;;;;5049891;28;20646;-53
2021/07/14 10:42:58;;;;;;;10.93;6.80;;;19.10;97.70;;;;;;5050040;28;21086;-55
2021/07/14 10:45:25;;;;;;;5.37;4.77;;;19.10;98.10;;;;;;5049523;28;20669;-51
2021/07/14 10:47:55;;;;;;;5.20;4.77;;;19.10;98.00;;;;;;5049596;28;20700;-54
2021/07/14 10:50:24;;;;;;;6.27;5.40;;;19.10;98.00;;;;;;5050175;28;20649;-54
2021/07/14 10:52:52;;;;;;;7.30;4.80;;;19.10;98.00;;;;;;5049827;28;20653;-55
2021/07/14 10:55:21;;;;;;;6.73;5.13;;;19.10;98.00;;;;;;5049758;28;20717;-55
2021/07/14 10:57:48;;;;;;;5.43;4.70;;;19.10;97.90;;;;;;5048734;28;20792;-53
2021/07/14 11:00:16;;;;;;;7.70;4.90;;;19.10;97.90;;;;;;5048698;28;20684;-53
2021/07/14 11:02:44;;;;;;;5.50;5.00;;;19.10;98.00;;;;;;5049170;28;20658;-54
2021/07/14 11:05:14;;;;;;;5.00;4.60;;;19.10;97.90;;;;;;5052141;28;20628;-54
2021/07/14 11:07:43;;;;;;;8.00;4.60;;;19.00;98.00;;;;;;5053539;28;21311;-57
2021/07/14 11:10:27;;;;;;;6.10;5.27;;;19.10;98.20;;;;;;5053159;28;20626;-55
2021/07/14 11:12:54;;;;;;;5.00;4.50;;;19.10;98.10;;;;;;5053956;28;20621;-57
2021/07/14 11:15:33;;;;;;;6.70;4.80;;;19.10;98.00;;;;;;5035291;28;20686;-54
2021/07/14 11:18:00;;;;;;;5.00;4.60;;;19.10;98.20;;;;;;5053079;28;20974;-53
2021/07/14 11:20:39;;;;;;;5.03;4.30;;;19.10;98.00;;;;;;5053093;28;20625;-54
2021/07/14 11:23:16;;;;;;;5.60;4.37;;;19.10;97.90;;;;;;5034537;28;20690;-55
2021/07/14 11:25:47;;;;;;;4.53;4.13;;;19.10;97.80;;;;;;5053320;28;20621;-55
2021/07/14 11:28:14;;;;;;;6.43;3.47;;;19.10;97.80;;;;;;5052661;28;20664;-54
2021/07/14 11:30:43;;;;;;;5.87;3.90;;;19.10;97.90;;;;;;5054311;28;20673;-54
2021/07/14 11:33:17;;;;;;;4.27;3.70;;;19.10;97.80;;;;;;5053785;28;20663;-52
2021/07/14 11:35:50;;;;;;;3.67;3.47;;;19.10;97.80;;;;;;5053465;28;20661;-50
2021/07/14 11:38:20;;;;;;;5.40;4.00;;;19.10;97.90;;;;;;5052837;28;21210;-49
2021/07/14 11:40:48;;;;;;;9.87;4.77;;;19.30;97.70;;;;;;5053029;28;20658;-49
2021/07/14 11:43:26;;;;;;;4.57;3.80;;;19.40;97.20;;;;;;5053528;28;20650;-50
2021/07/14 11:45:55;;;;;;;6.17;4.10;;;19.40;97.10;;;;;;5034574;28;20994;-49
2021/07/14 11:48:27;;;;;;;5.43;4.93;;;19.50;97.10;;;;;;5053507;28;20997;-53
2021/07/14 11:50:57;;;;;;;10.00;5.17;;;19.50;97.10;;;;;;5053102;28;20672;-52
2021/07/14 11:53:41;;;;;;;3.80;3.50;;;19.40;97.20;;;;;;5037894;28;21167;-53
2021/07/14 11:56:10;;;;;;;3.53;3.23;;;19.40;97.70;;;;;;5051171;28;20665;-54
2021/07/14 11:59:05;;;;;;;4.53;3.67;;;19.40;98.00;;;;;;5033688;28;20688;-54
2021/07/14 12:01:59;;;;;;;7.90;5.00;;;19.40;98.50;;;;;;5032879;28;20662;-54
2021/07/14 12:04:30;;;;;;;5.33;4.93;;;19.40;98.70;;;;;;5053074;28;20637;-53
2021/07/14 12:07:10;;;;;;;7.87;4.40;;;19.40;98.90;;;;;;5033158;28;20724;-52
2021/07/14 12:09:40;;;;;;;7.27;5.93;;;19.40;99.00;;;;;;5033110;28;21144;-53
2021/07/14 12:12:09;;;;;;;5.07;4.57;;;19.40;99.00;;;;;;5040686;28;21042;-52
2021/07/14 12:14:38;;;;;;;6.93;5.00;;;19.40;99.20;;;;;;5052591;28;21191;-52
2021/07/14 12:17:07;;;;;;;4.93;4.53;;;19.30;99.20;;;;;;5052546;28;21042;-51
2021/07/14 12:19:35;;;;;;;5.37;4.30;;;19.30;99.50;;;;;;5052905;28;20657;-52
2021/07/14 12:22:08;;;;;;;6.30;5.80;;;19.20;99.70;;;;;;5052904;28;20661;-52
2021/07/14 12:24:38;;;;;;;7.50;5.10;;;19.20;99.90;;;;;;5053090;28;20664;-53
2021/07/14 12:27:09;;;;;;;6.33;4.70;;;19.20;99.90;;;;;;5052732;28;20677;-54
2021/07/14 12:29:37;;;;;;;9.53;5.63;;;19.30;99.90;;;;;;5052622;28;21011;-51
2021/07/14 12:32:05;;;;;;;4.77;4.43;;;19.40;99.80;;;;;;5052547;28;20634;-50
2021/07/14 12:34:32;;;;;;;8.70;5.60;;;19.40;99.90;;;;;;5052661;28;20660;-50
2021/07/14 12:37:00;;;;;;;8.53;6.40;;;19.60;99.90;;;;;;5051654;28;21013;-51
2021/07/14 12:39:30;;;;;;;8.30;5.23;;;19.80;99.60;;;;;;5034717;28;21231;-51
2021/07/14 12:41:58;;;;;;;6.70;5.27;;;19.90;99.30;;;;;;5052034;28;20662;-51
2021/07/14 12:44:25;;;;;;;5.80;4.97;;;20.00;99.00;;;;;;5052387;28;20698;-51
2021/07/14 12:46:53;;;;;;;6.50;5.90;;;20.00;98.90;;;;;;5052947;28;20665;-51
2021/07/14 12:49:22;;;;;;;6.67;5.97;;;20.10;98.70;;;;;;5051742;28;20642;-52
2021/07/14 12:52:03;;;;;;;6.13;5.63;;;20.00;98.50;;;;;;5051452;28;20664;-52
2021/07/14 12:54:32;;;;;;;6.13;5.50;;;19.90;98.70;;;;;;5051779;28;20646;-53
2021/07/14 12:57:21;;;;;;;6.50;5.70;;;19.90;99.00;;;;;;5051056;28;20697;-53
2021/07/14 12:59:50;;;;;;;6.93;6.33;;;19.80;99.40;;;;;;5049875;28;20657;-53